Airfield :
LOGIN :

Register | Disclaimer

   EN    FR    IT 

 










Legend :    VFR   Marginal VFR   IFR   Intensive IFR   Very Intensive IFR
Visi :
Ceiling :
>= 8 km
>= 3000ft
5 to 8 km
1000 to 3000 ft
1500m to 5 km
500 to 1000 ft
800 to 1500m
200 to 500 ft
< 800m
< 200 ft
Symbols :   Thunderstorms  Fog  Heavy snow  Heavy precipitations  Wind > 20 kt
SIGMETs :     Misc.  Thunderstorms  Icing  Turbulence  Mountain Waves  Volcanic Ashes






- Airport Elevation : 125 ft
- IATA code : MGL


EDLN - Mönchengladbach

CURRENT METAR :
  • 070750Z 34001KT 8000 NSC M01/M02 Q1026

EXPIRED METARs :
  • 070720Z 32002KT CAVOK M03/M04 Q1026
  • 070650Z 30001KT CAVOK M04/M04 Q1026
  • 070620Z AUTO 32002KT 6000 // NCD M04/M05 Q1026
  • 070550Z AUTO 00000KT 1000 R13/1800D // NCD M05/M05 Q1026

TAF TAF EDLN
Valid from the 07 at 08:00 until the 07 at 15:00 UTC


070723Z 0708/0715 VRB02KT CAVOK
BECMG 0708/0711 35006KT



MET'MAP, your aeronautical weather chart ! - Copyright ORBIFLY December 2007 - Disclaimer

ORBIFLY MET'MAP TEAM :

Programming & Development : Alexandra Zaïnal
Concept & original design : Baudouin d'Aumeries
Assistance for programming : Marc-Olivier Méhu
Technical & hardware support : Manuel Goepfert

Contact : metmap@orbifly.com




SOURCES & CREDITS :

   NOAA